sensor_id;sensor_type;location;lat;lon;timestamp;P1;durP1;ratioP1;P2;durP2;ratioP2
52266;SDS011;38223;50.940;4.034;2023-05-21T00:00:28;3.85;;;2.52;;
52266;SDS011;38223;50.940;4.034;2023-05-21T00:02:58;8.25;;;2.42;;
52266;SDS011;38223;50.940;4.034;2023-05-21T00:05:34;4.00;;;2.02;;
52266;SDS011;38223;50.940;4.034;2023-05-21T00:08:07;4.35;;;2.45;;
52266;SDS011;38223;50.940;4.034;2023-05-21T00:10:41;2.42;;;2.22;;
52266;SDS011;38223;50.940;4.034;2023-05-21T00:13:12;3.90;;;2.33;;
52266;SDS011;38223;50.940;4.034;2023-05-21T00:15:42;2.60;;;2.25;;
52266;SDS011;38223;50.940;4.034;2023-05-21T00:18:14;4.28;;;2.12;;
52266;SDS011;38223;50.940;4.034;2023-05-21T00:20:46;4.20;;;2.12;;
52266;SDS011;38223;50.940;4.034;2023-05-21T00:25:49;3.10;;;2.02;;
52266;SDS011;38223;50.940;4.034;2023-05-21T00:28:19;2.80;;;2.17;;
52266;SDS011;38223;50.940;4.034;2023-05-21T00:30:50;14.00;;;2.92;;
52266;SDS011;38223;50.940;4.034;2023-05-21T00:33:20;2.60;;;2.40;;
52266;SDS011;38223;50.940;4.034;2023-05-21T00:35:58;2.60;;;2.25;;
52266;SDS011;38223;50.940;4.034;2023-05-21T00:38:26;8.88;;;2.67;;
52266;SDS011;38223;50.940;4.034;2023-05-21T00:43:28;2.60;;;2.20;;
52266;SDS011;38223;50.940;4.034;2023-05-21T00:46:01;4.08;;;2.42;;
52266;SDS011;38223;50.940;4.034;2023-05-21T00:48:31;3.72;;;2.25;;
52266;SDS011;38223;50.940;4.034;2023-05-21T00:51:05;4.58;;;2.45;;
52266;SDS011;38223;50.940;4.034;2023-05-21T00:53:33;2.75;;;2.50;;
52266;SDS011;38223;50.940;4.034;2023-05-21T00:56:13;3.12;;;2.83;;
52266;SDS011;38223;50.940;4.034;2023-05-21T00:58:43;5.40;;;2.80;;
52266;SDS011;38223;50.940;4.034;2023-05-21T01:01:19;3.65;;;2.75;;
52266;SDS011;38223;50.940;4.034;2023-05-21T01:03:49;4.22;;;2.92;;
52266;SDS011;38223;50.940;4.034;2023-05-21T01:06:26;3.33;;;2.83;;
52266;SDS011;38223;50.940;4.034;2023-05-21T01:08:56;5.40;;;2.90;;
52266;SDS011;38223;50.940;4.034;2023-05-21T01:11:38;3.12;;;2.80;;
52266;SDS011;38223;50.940;4.034;2023-05-21T01:14:10;5.95;;;2.90;;
52266;SDS011;38223;50.940;4.034;2023-05-21T01:16:40;3.40;;;2.83;;
52266;SDS011;38223;50.940;4.034;2023-05-21T01:19:16;3.17;;;2.85;;
52266;SDS011;38223;50.940;4.034;2023-05-21T01:21:53;4.47;;;3.12;;
52266;SDS011;38223;50.940;4.034;2023-05-21T01:24:29;6.33;;;3.47;;
52266;SDS011;38223;50.940;4.034;2023-05-21T01:27:00;7.53;;;3.10;;
52266;SDS011;38223;50.940;4.034;2023-05-21T01:29:35;5.72;;;2.90;;
52266;SDS011;38223;50.940;4.034;2023-05-21T01:32:10;5.03;;;3.10;;
52266;SDS011;38223;50.940;4.034;2023-05-21T01:37:37;3.35;;;3.12;;
52266;SDS011;38223;50.940;4.034;2023-05-21T01:40:17;3.20;;;2.90;;
52266;SDS011;38223;50.940;4.034;2023-05-21T01:43:05;3.87;;;3.30;;
52266;SDS011;38223;50.940;4.034;2023-05-21T01:45:35;4.12;;;3.27;;
52266;SDS011;38223;50.940;4.034;2023-05-21T01:48:11;5.58;;;3.40;;
52266;SDS011;38223;50.940;4.034;2023-05-21T01:50:42;4.25;;;3.42;;
52266;SDS011;38223;50.940;4.034;2023-05-21T01:53:20;4.40;;;3.50;;
52266;SDS011;38223;50.940;4.034;2023-05-21T01:55:55;6.05;;;3.27;;
52266;SDS011;38223;50.940;4.034;2023-05-21T01:58:29;5.08;;;3.10;;
52266;SDS011;38223;50.940;4.034;2023-05-21T02:00:59;4.75;;;3.42;;
52266;SDS011;38223;50.940;4.034;2023-05-21T02:03:30;7.25;;;3.60;;
52266;SDS011;38223;50.940;4.034;2023-05-21T02:05:59;4.30;;;3.22;;
52266;SDS011;38223;50.940;4.034;2023-05-21T02:08:30;3.90;;;3.25;;
52266;SDS011;38223;50.940;4.034;2023-05-21T02:11:00;4.42;;;3.30;;
52266;SDS011;38223;50.940;4.034;2023-05-21T02:13:34;5.15;;;3.17;;
52266;SDS011;38223;50.940;4.034;2023-05-21T02:16:05;3.92;;;3.45;;
52266;SDS011;38223;50.940;4.034;2023-05-21T02:18:46;5.70;;;3.77;;
52266;SDS011;38223;50.940;4.034;2023-05-21T02:21:15;4.25;;;3.85;;
52266;SDS011;38223;50.940;4.034;2023-05-21T02:23:50;4.85;;;3.15;;
52266;SDS011;38223;50.940;4.034;2023-05-21T02:26:24;4.50;;;3.52;;
52266;SDS011;38223;50.940;4.034;2023-05-21T02:28:57;4.28;;;3.70;;
52266;SDS011;38223;50.940;4.034;2023-05-21T02:31:38;3.90;;;3.60;;
52266;SDS011;38223;50.940;4.034;2023-05-21T02:34:17;9.50;;;3.70;;
52266;SDS011;38223;50.940;4.034;2023-05-21T02:36:50;5.08;;;3.55;;
52266;SDS011;38223;50.940;4.034;2023-05-21T02:39:24;4.35;;;3.95;;
52266;SDS011;38223;50.940;4.034;2023-05-21T02:41:55;6.03;;;4.20;;
52266;SDS011;38223;50.940;4.034;2023-05-21T02:44:40;4.47;;;3.85;;
52266;SDS011;38223;50.940;4.034;2023-05-21T02:47:17;7.85;;;3.75;;
52266;SDS011;38223;50.940;4.034;2023-05-21T02:49:53;6.12;;;3.58;;
52266;SDS011;38223;50.940;4.034;2023-05-21T02:52:29;4.40;;;4.00;;
52266;SDS011;38223;50.940;4.034;2023-05-21T02:55:10;4.30;;;4.00;;
52266;SDS011;38223;50.940;4.034;2023-05-21T02:57:44;11.75;;;4.42;;
52266;SDS011;38223;50.940;4.034;2023-05-21T03:00:19;7.28;;;4.05;;
52266;SDS011;38223;50.940;4.034;2023-05-21T03:02:54;4.40;;;3.72;;
52266;SDS011;38223;50.940;4.034;2023-05-21T03:05:30;4.72;;;4.20;;
52266;SDS011;38223;50.940;4.034;2023-05-21T03:08:07;4.35;;;3.95;;
52266;SDS011;38223;50.940;4.034;2023-05-21T03:10:43;5.92;;;4.58;;
52266;SDS011;38223;50.940;4.034;2023-05-21T03:13:31;8.95;;;4.15;;
52266;SDS011;38223;50.940;4.034;2023-05-21T03:18:38;7.45;;;4.65;;
52266;SDS011;38223;50.940;4.034;2023-05-21T03:21:22;4.65;;;4.20;;
52266;SDS011;38223;50.940;4.034;2023-05-21T03:23:58;5.58;;;5.15;;
52266;SDS011;38223;50.940;4.034;2023-05-21T03:26:40;6.37;;;5.03;;
52266;SDS011;38223;50.940;4.034;2023-05-21T03:29:21;9.83;;;5.17;;
52266;SDS011;38223;50.940;4.034;2023-05-21T03:31:59;5.78;;;5.05;;
52266;SDS011;38223;50.940;4.034;2023-05-21T03:34:41;6.33;;;4.90;;
52266;SDS011;38223;50.940;4.034;2023-05-21T03:37:25;5.67;;;5.17;;
52266;SDS011;38223;50.940;4.034;2023-05-21T03:39:56;6.00;;;5.50;;
52266;SDS011;38223;50.940;4.034;2023-05-21T03:42:42;9.23;;;5.08;;
52266;SDS011;38223;50.940;4.034;2023-05-21T03:45:34;5.33;;;4.80;;
52266;SDS011;38223;50.940;4.034;2023-05-21T03:48:23;7.40;;;4.78;;
52266;SDS011;38223;50.940;4.034;2023-05-21T03:50:59;5.33;;;4.83;;
52266;SDS011;38223;50.940;4.034;2023-05-21T03:53:34;7.83;;;5.12;;
52266;SDS011;38223;50.940;4.034;2023-05-21T03:58:52;12.82;;;5.42;;
52266;SDS011;38223;50.940;4.034;2023-05-21T04:01:27;8.28;;;5.45;;
52266;SDS011;38223;50.940;4.034;2023-05-21T04:04:11;6.60;;;5.67;;
52266;SDS011;38223;50.940;4.034;2023-05-21T04:06:51;6.20;;;5.53;;
52266;SDS011;38223;50.940;4.034;2023-05-21T04:12:08;6.10;;;5.60;;
52266;SDS011;38223;50.940;4.034;2023-05-21T04:14:48;6.42;;;5.72;;
52266;SDS011;38223;50.940;4.034;2023-05-21T04:17:29;6.40;;;5.78;;
52266;SDS011;38223;50.940;4.034;2023-05-21T04:20:04;7.00;;;6.00;;
52266;SDS011;38223;50.940;4.034;2023-05-21T04:22:41;8.40;;;6.53;;
52266;SDS011;38223;50.940;4.034;2023-05-21T04:25:16;8.43;;;5.83;;
52266;SDS011;38223;50.940;4.034;2023-05-21T04:27:52;6.58;;;5.90;;
52266;SDS011;38223;50.940;4.034;2023-05-21T04:30:28;6.70;;;5.85;;
52266;SDS011;38223;50.940;4.034;2023-05-21T04:33:01;9.10;;;6.15;;
52266;SDS011;38223;50.940;4.034;2023-05-21T04:35:50;6.30;;;5.70;;
52266;SDS011;38223;50.940;4.034;2023-05-21T04:38:42;6.60;;;5.78;;
52266;SDS011;38223;50.940;4.034;2023-05-21T04:41:21;8.38;;;5.50;;
52266;SDS011;38223;50.940;4.034;2023-05-21T04:43:55;6.45;;;5.83;;
52266;SDS011;38223;50.940;4.034;2023-05-21T04:46:34;6.37;;;5.78;;
52266;SDS011;38223;50.940;4.034;2023-05-21T04:49:14;6.25;;;5.75;;
52266;SDS011;38223;50.940;4.034;2023-05-21T04:51:49;7.08;;;5.95;;
52266;SDS011;38223;50.940;4.034;2023-05-21T04:54:24;6.28;;;5.62;;
52266;SDS011;38223;50.940;4.034;2023-05-21T04:56:57;6.42;;;5.92;;
52266;SDS011;38223;50.940;4.034;2023-05-21T04:59:38;6.17;;;5.62;;
52266;SDS011;38223;50.940;4.034;2023-05-21T05:02:11;6.72;;;6.05;;
52266;SDS011;38223;50.940;4.034;2023-05-21T05:04:51;7.20;;;6.03;;
52266;SDS011;38223;50.940;4.034;2023-05-21T05:07:27;9.48;;;5.85;;
52266;SDS011;38223;50.940;4.034;2023-05-21T05:10:08;6.87;;;6.03;;
52266;SDS011;38223;50.940;4.034;2023-05-21T05:12:59;8.53;;;6.60;;
52266;SDS011;38223;50.940;4.034;2023-05-21T05:15:38;10.15;;;6.22;;
52266;SDS011;38223;50.940;4.034;2023-05-21T05:18:12;8.30;;;6.15;;
52266;SDS011;38223;50.940;4.034;2023-05-21T05:20:51;6.12;;;5.60;;
52266;SDS011;38223;50.940;4.034;2023-05-21T05:23:26;8.98;;;5.58;;
52266;SDS011;38223;50.940;4.034;2023-05-21T05:26:04;6.45;;;5.87;;
52266;SDS011;38223;50.940;4.034;2023-05-21T05:28:44;9.65;;;5.83;;
52266;SDS011;38223;50.940;4.034;2023-05-21T05:31:16;6.15;;;5.65;;
52266;SDS011;38223;50.940;4.034;2023-05-21T05:33:47;7.30;;;5.75;;
52266;SDS011;38223;50.940;4.034;2023-05-21T05:36:26;6.17;;;5.70;;
52266;SDS011;38223;50.940;4.034;2023-05-21T05:39:03;6.10;;;5.60;;
52266;SDS011;38223;50.940;4.034;2023-05-21T05:41:54;7.95;;;5.53;;
52266;SDS011;38223;50.940;4.034;2023-05-21T05:44:26;6.12;;;5.47;;
52266;SDS011;38223;50.940;4.034;2023-05-21T05:47:09;6.10;;;5.55;;
52266;SDS011;38223;50.940;4.034;2023-05-21T05:49:47;5.97;;;5.47;;
52266;SDS011;38223;50.940;4.034;2023-05-21T05:52:19;6.15;;;5.55;;
52266;SDS011;38223;50.940;4.034;2023-05-21T05:54:52;6.17;;;5.67;;
52266;SDS011;38223;50.940;4.034;2023-05-21T05:57:30;6.00;;;5.53;;
52266;SDS011;38223;50.940;4.034;2023-05-21T06:00:09;6.47;;;5.87;;
52266;SDS011;38223;50.940;4.034;2023-05-21T06:02:42;7.47;;;6.17;;
52266;SDS011;38223;50.940;4.034;2023-05-21T06:05:23;6.05;;;5.25;;
52266;SDS011;38223;50.940;4.034;2023-05-21T06:08:07;9.15;;;5.45;;
52266;SDS011;38223;50.940;4.034;2023-05-21T06:10:37;6.95;;;6.25;;
52266;SDS011;38223;50.940;4.034;2023-05-21T06:13:24;6.92;;;5.95;;
52266;SDS011;38223;50.940;4.034;2023-05-21T06:15:56;7.00;;;5.53;;
52266;SDS011;38223;50.940;4.034;2023-05-21T06:18:38;6.92;;;6.10;;
52266;SDS011;38223;50.940;4.034;2023-05-21T06:21:14;6.97;;;5.72;;
52266;SDS011;38223;50.940;4.034;2023-05-21T06:23:54;6.85;;;5.53;;
52266;SDS011;38223;50.940;4.034;2023-05-21T06:26:33;7.20;;;5.62;;
52266;SDS011;38223;50.940;4.034;2023-05-21T06:29:10;5.78;;;5.25;;
52266;SDS011;38223;50.940;4.034;2023-05-21T06:31:50;6.78;;;6.25;;
52266;SDS011;38223;50.940;4.034;2023-05-21T06:34:27;6.60;;;6.10;;
52266;SDS011;38223;50.940;4.034;2023-05-21T06:39:44;7.65;;;6.47;;
52266;SDS011;38223;50.940;4.034;2023-05-21T06:42:23;6.87;;;6.28;;
52266;SDS011;38223;50.940;4.034;2023-05-21T06:44:53;6.80;;;6.20;;
52266;SDS011;38223;50.940;4.034;2023-05-21T06:47:33;8.50;;;6.70;;
52266;SDS011;38223;50.940;4.034;2023-05-21T06:50:13;6.85;;;6.25;;
52266;SDS011;38223;50.940;4.034;2023-05-21T06:52:48;6.80;;;6.17;;
52266;SDS011;38223;50.940;4.034;2023-05-21T06:55:31;7.15;;;6.50;;
52266;SDS011;38223;50.940;4.034;2023-05-21T06:58:12;7.00;;;6.33;;
52266;SDS011;38223;50.940;4.034;2023-05-21T07:00:53;7.55;;;6.80;;
52266;SDS011;38223;50.940;4.034;2023-05-21T07:03:37;7.12;;;6.53;;
52266;SDS011;38223;50.940;4.034;2023-05-21T07:06:12;6.60;;;6.10;;
52266;SDS011;38223;50.940;4.034;2023-05-21T07:09:11;7.70;;;6.92;;
52266;SDS011;38223;50.940;4.034;2023-05-21T07:11:45;6.50;;;6.00;;
52266;SDS011;38223;50.940;4.034;2023-05-21T07:14:35;8.90;;;6.62;;
52266;SDS011;38223;50.940;4.034;2023-05-21T07:17:09;7.33;;;6.67;;
52266;SDS011;38223;50.940;4.034;2023-05-21T07:22:25;6.97;;;6.47;;
52266;SDS011;38223;50.940;4.034;2023-05-21T07:25:03;8.38;;;6.95;;
52266;SDS011;38223;50.940;4.034;2023-05-21T07:27:35;6.95;;;6.45;;
52266;SDS011;38223;50.940;4.034;2023-05-21T07:30:13;7.40;;;6.50;;
52266;SDS011;38223;50.940;4.034;2023-05-21T07:32:47;7.70;;;7.10;;
52266;SDS011;38223;50.940;4.034;2023-05-21T07:35:20;7.70;;;6.97;;
52266;SDS011;38223;50.940;4.034;2023-05-21T07:37:57;8.70;;;7.05;;
52266;SDS011;38223;50.940;4.034;2023-05-21T07:40:42;7.50;;;6.90;;
52266;SDS011;38223;50.940;4.034;2023-05-21T07:43:22;7.50;;;6.87;;
52266;SDS011;38223;50.940;4.034;2023-05-21T07:45:53;8.00;;;7.30;;
52266;SDS011;38223;50.940;4.034;2023-05-21T07:48:24;7.93;;;7.10;;
52266;SDS011;38223;50.940;4.034;2023-05-21T07:50:59;7.62;;;6.65;;
52266;SDS011;38223;50.940;4.034;2023-05-21T07:53:39;7.60;;;6.90;;
52266;SDS011;38223;50.940;4.034;2023-05-21T07:56:11;8.35;;;7.20;;
52266;SDS011;38223;50.940;4.034;2023-05-21T07:58:42;12.28;;;7.20;;
52266;SDS011;38223;50.940;4.034;2023-05-21T08:01:18;8.75;;;7.20;;
52266;SDS011;38223;50.940;4.034;2023-05-21T08:03:52;8.25;;;7.42;;
52266;SDS011;38223;50.940;4.034;2023-05-21T08:06:24;9.40;;;8.15;;
52266;SDS011;38223;50.940;4.034;2023-05-21T08:09:07;9.23;;;7.92;;
52266;SDS011;38223;50.940;4.034;2023-05-21T08:11:44;9.70;;;8.05;;
52266;SDS011;38223;50.940;4.034;2023-05-21T08:14:18;10.00;;;7.83;;
52266;SDS011;38223;50.940;4.034;2023-05-21T08:16:58;8.83;;;7.97;;
52266;SDS011;38223;50.940;4.034;2023-05-21T08:19:36;9.55;;;7.30;;
52266;SDS011;38223;50.940;4.034;2023-05-21T08:22:13;8.78;;;7.72;;
52266;SDS011;38223;50.940;4.034;2023-05-21T08:24:51;9.08;;;8.28;;
52266;SDS011;38223;50.940;4.034;2023-05-21T08:27:26;8.50;;;7.80;;
52266;SDS011;38223;50.940;4.034;2023-05-21T08:30:02;9.70;;;7.83;;
52266;SDS011;38223;50.940;4.034;2023-05-21T08:32:40;7.67;;;6.97;;
52266;SDS011;38223;50.940;4.034;2023-05-21T08:37:51;9.08;;;7.22;;
52266;SDS011;38223;50.940;4.034;2023-05-21T08:40:28;9.38;;;8.43;;
52266;SDS011;38223;50.940;4.034;2023-05-21T08:43:03;9.00;;;8.30;;
52266;SDS011;38223;50.940;4.034;2023-05-21T08:45:41;9.20;;;8.38;;
52266;SDS011;38223;50.940;4.034;2023-05-21T08:48:18;9.40;;;7.80;;
52266;SDS011;38223;50.940;4.034;2023-05-21T08:50:50;9.23;;;8.33;;
52266;SDS011;38223;50.940;4.034;2023-05-21T08:53:32;8.78;;;7.87;;
52266;SDS011;38223;50.940;4.034;2023-05-21T08:56:05;9.93;;;7.78;;
52266;SDS011;38223;50.940;4.034;2023-05-21T08:58:42;9.50;;;8.60;;
52266;SDS011;38223;50.940;4.034;2023-05-21T09:01:12;9.00;;;8.30;;
52266;SDS011;38223;50.940;4.034;2023-05-21T09:03:56;9.53;;;8.25;;
52266;SDS011;38223;50.940;4.034;2023-05-21T09:06:32;8.85;;;7.67;;
52266;SDS011;38223;50.940;4.034;2023-05-21T09:09:19;9.13;;;8.05;;
52266;SDS011;38223;50.940;4.034;2023-05-21T09:11:57;8.63;;;7.92;;
52266;SDS011;38223;50.940;4.034;2023-05-21T09:14:43;8.73;;;8.03;;
52266;SDS011;38223;50.940;4.034;2023-05-21T09:17:20;9.08;;;8.38;;
52266;SDS011;38223;50.940;4.034;2023-05-21T09:20:27;9.85;;;9.00;;
52266;SDS011;38223;50.940;4.034;2023-05-21T09:23:21;9.45;;;8.60;;
52266;SDS011;38223;50.940;4.034;2023-05-21T09:25:59;8.98;;;8.18;;
52266;SDS011;38223;50.940;4.034;2023-05-21T09:28:34;9.48;;;8.58;;
52266;SDS011;38223;50.940;4.034;2023-05-21T09:31:18;9.85;;;9.05;;
52266;SDS011;38223;50.940;4.034;2023-05-21T09:34:09;10.23;;;9.20;;
52266;SDS011;38223;50.940;4.034;2023-05-21T09:36:41;9.90;;;9.05;;
52266;SDS011;38223;50.940;4.034;2023-05-21T09:39:35;10.63;;;9.63;;
52266;SDS011;38223;50.940;4.034;2023-05-21T09:42:11;10.78;;;9.68;;
52266;SDS011;38223;50.940;4.034;2023-05-21T09:44:46;10.40;;;9.50;;
52266;SDS011;38223;50.940;4.034;2023-05-21T09:50:19;10.93;;;10.00;;
52266;SDS011;38223;50.940;4.034;2023-05-21T09:52:57;10.93;;;9.83;;
52266;SDS011;38223;50.940;4.034;2023-05-21T09:55:45;10.15;;;9.30;;
52266;SDS011;38223;50.940;4.034;2023-05-21T09:58:24;10.35;;;9.50;;
52266;SDS011;38223;50.940;4.034;2023-05-21T10:01:04;10.88;;;9.88;;
52266;SDS011;38223;50.940;4.034;2023-05-21T10:03:44;11.53;;;10.58;;
52266;SDS011;38223;50.940;4.034;2023-05-21T10:06:22;11.03;;;10.03;;
52266;SDS011;38223;50.940;4.034;2023-05-21T10:08:55;11.70;;;9.73;;
52266;SDS011;38223;50.940;4.034;2023-05-21T10:11:30;11.75;;;10.63;;
52266;SDS011;38223;50.940;4.034;2023-05-21T10:14:09;10.05;;;9.20;;
52266;SDS011;38223;50.940;4.034;2023-05-21T10:16:49;10.65;;;9.63;;
52266;SDS011;38223;50.940;4.034;2023-05-21T10:24:39;12.80;;;9.90;;
52266;SDS011;38223;50.940;4.034;2023-05-21T10:27:17;10.38;;;9.58;;
52266;SDS011;38223;50.940;4.034;2023-05-21T10:29:51;11.15;;;10.08;;
52266;SDS011;38223;50.940;4.034;2023-05-21T10:32:27;10.78;;;9.75;;
52266;SDS011;38223;50.940;4.034;2023-05-21T10:35:02;11.12;;;10.18;;
52266;SDS011;38223;50.940;4.034;2023-05-21T10:37:44;10.75;;;9.95;;
52266;SDS011;38223;50.940;4.034;2023-05-21T10:40:20;11.08;;;10.00;;
52266;SDS011;38223;50.940;4.034;2023-05-21T10:43:17;11.70;;;9.80;;
52266;SDS011;38223;50.940;4.034;2023-05-21T10:54:56;12.20;;;10.95;;
52266;SDS011;38223;50.940;4.034;2023-05-21T11:00:37;13.75;;;12.53;;
52266;SDS011;38223;50.940;4.034;2023-05-21T11:03:11;13.65;;;12.35;;
52266;SDS011;38223;50.940;4.034;2023-05-21T11:05:56;12.37;;;11.38;;
52266;SDS011;38223;50.940;4.034;2023-05-21T11:08:27;14.10;;;12.75;;
52266;SDS011;38223;50.940;4.034;2023-05-21T11:11:06;12.73;;;11.53;;
52266;SDS011;38223;50.940;4.034;2023-05-21T11:13:46;12.13;;;10.85;;
52266;SDS011;38223;50.940;4.034;2023-05-21T11:16:22;13.03;;;12.00;;
52266;SDS011;38223;50.940;4.034;2023-05-21T11:19:01;12.80;;;10.50;;
52266;SDS011;38223;50.940;4.034;2023-05-21T11:21:38;12.88;;;11.75;;
52266;SDS011;38223;50.940;4.034;2023-05-21T11:24:12;12.53;;;11.53;;
52266;SDS011;38223;50.940;4.034;2023-05-21T11:27:07;12.55;;;11.57;;
52266;SDS011;38223;50.940;4.034;2023-05-21T11:29:53;13.10;;;11.93;;
52266;SDS011;38223;50.940;4.034;2023-05-21T11:32:23;15.90;;;11.88;;
52266;SDS011;38223;50.940;4.034;2023-05-21T11:35:05;14.38;;;11.05;;
52266;SDS011;38223;50.940;4.034;2023-05-21T11:37:41;12.73;;;11.38;;
52266;SDS011;38223;50.940;4.034;2023-05-21T11:40:24;13.83;;;12.40;;
52266;SDS011;38223;50.940;4.034;2023-05-21T11:43:00;11.70;;;10.80;;
52266;SDS011;38223;50.940;4.034;2023-05-21T11:45:35;13.68;;;12.47;;
52266;SDS011;38223;50.940;4.034;2023-05-21T11:48:29;13.62;;;11.73;;
52266;SDS011;38223;50.940;4.034;2023-05-21T11:51:03;13.60;;;12.28;;
52266;SDS011;38223;50.940;4.034;2023-05-21T11:53:37;13.80;;;12.58;;
52266;SDS011;38223;50.940;4.034;2023-05-21T11:56:16;12.98;;;11.70;;
52266;SDS011;38223;50.940;4.034;2023-05-21T11:59:00;13.58;;;12.35;;
52266;SDS011;38223;50.940;4.034;2023-05-21T12:01:35;13.50;;;12.23;;
52266;SDS011;38223;50.940;4.034;2023-05-21T12:04:09;14.60;;;13.08;;
52266;SDS011;38223;50.940;4.034;2023-05-21T12:06:50;13.08;;;11.88;;
52266;SDS011;38223;50.940;4.034;2023-05-21T12:09:26;14.80;;;13.18;;
52266;SDS011;38223;50.940;4.034;2023-05-21T12:12:01;13.70;;;11.95;;
52266;SDS011;38223;50.940;4.034;2023-05-21T12:14:33;14.23;;;12.78;;
52266;SDS011;38223;50.940;4.034;2023-05-21T12:17:05;11.93;;;11.08;;
52266;SDS011;38223;50.940;4.034;2023-05-21T12:19:39;12.33;;;11.33;;
52266;SDS011;38223;50.940;4.034;2023-05-21T12:22:18;14.03;;;13.03;;
52266;SDS011;38223;50.940;4.034;2023-05-21T12:24:52;12.65;;;11.65;;
52266;SDS011;38223;50.940;4.034;2023-05-21T12:27:29;13.53;;;12.33;;
52266;SDS011;38223;50.940;4.034;2023-05-21T12:30:11;12.95;;;11.83;;
52266;SDS011;38223;50.940;4.034;2023-05-21T12:32:45;12.82;;;11.57;;
52266;SDS011;38223;50.940;4.034;2023-05-21T12:35:22;14.23;;;12.78;;
52266;SDS011;38223;50.940;4.034;2023-05-21T12:38:02;12.78;;;11.78;;
52266;SDS011;38223;50.940;4.034;2023-05-21T12:40:36;12.28;;;11.28;;
52266;SDS011;38223;50.940;4.034;2023-05-21T12:43:17;12.70;;;11.53;;
52266;SDS011;38223;50.940;4.034;2023-05-21T12:45:50;13.60;;;11.60;;
52266;SDS011;38223;50.940;4.034;2023-05-21T12:48:49;12.35;;;11.33;;
52266;SDS011;38223;50.940;4.034;2023-05-21T12:51:21;14.30;;;12.80;;
52266;SDS011;38223;50.940;4.034;2023-05-21T12:54:01;12.50;;;11.38;;
52266;SDS011;38223;50.940;4.034;2023-05-21T12:56:42;13.93;;;12.63;;
52266;SDS011;38223;50.940;4.034;2023-05-21T12:59:22;13.25;;;12.10;;
52266;SDS011;38223;50.940;4.034;2023-05-21T13:01:56;12.25;;;11.22;;
52266;SDS011;38223;50.940;4.034;2023-05-21T13:04:39;13.20;;;11.83;;
52266;SDS011;38223;50.940;4.034;2023-05-21T13:07:18;15.18;;;12.37;;
52266;SDS011;38223;50.940;4.034;2023-05-21T13:09:50;12.63;;;10.53;;
52266;SDS011;38223;50.940;4.034;2023-05-21T13:12:26;12.82;;;11.53;;
52266;SDS011;38223;50.940;4.034;2023-05-21T13:15:00;13.20;;;11.78;;
52266;SDS011;38223;50.940;4.034;2023-05-21T13:17:34;12.28;;;11.08;;
52266;SDS011;38223;50.940;4.034;2023-05-21T13:20:17;15.38;;;11.53;;
52266;SDS011;38223;50.940;4.034;2023-05-21T13:22:50;11.93;;;10.93;;
52266;SDS011;38223;50.940;4.034;2023-05-21T13:25:23;12.78;;;11.57;;
52266;SDS011;38223;50.940;4.034;2023-05-21T13:27:59;11.22;;;10.40;;
52266;SDS011;38223;50.940;4.034;2023-05-21T13:30:31;12.30;;;11.20;;
52266;SDS011;38223;50.940;4.034;2023-05-21T13:33:04;11.75;;;10.78;;
52266;SDS011;38223;50.940;4.034;2023-05-21T13:35:37;12.53;;;11.40;;
52266;SDS011;38223;50.940;4.034;2023-05-21T13:38:05;13.98;;;10.88;;
52266;SDS011;38223;50.940;4.034;2023-05-21T13:40:36;11.85;;;10.75;;
52266;SDS011;38223;50.940;4.034;2023-05-21T13:43:10;11.83;;;10.80;;
52266;SDS011;38223;50.940;4.034;2023-05-21T13:45:46;11.65;;;10.60;;
52266;SDS011;38223;50.940;4.034;2023-05-21T13:48:14;12.20;;;11.10;;
52266;SDS011;38223;50.940;4.034;2023-05-21T13:50:48;11.05;;;9.93;;
52266;SDS011;38223;50.940;4.034;2023-05-21T13:53:18;12.18;;;11.10;;
52266;SDS011;38223;50.940;4.034;2023-05-21T13:55:52;11.70;;;10.53;;
52266;SDS011;38223;50.940;4.034;2023-05-21T13:58:21;14.53;;;9.65;;
52266;SDS011;38223;50.940;4.034;2023-05-21T14:00:52;10.20;;;9.40;;
52266;SDS011;38223;50.940;4.034;2023-05-21T14:03:30;11.10;;;9.83;;
52266;SDS011;38223;50.940;4.034;2023-05-21T14:05:59;12.03;;;10.90;;
52266;SDS011;38223;50.940;4.034;2023-05-21T14:08:31;11.33;;;10.50;;
52266;SDS011;38223;50.940;4.034;2023-05-21T14:11:05;11.88;;;10.98;;
52266;SDS011;38223;50.940;4.034;2023-05-21T14:13:40;19.15;;;12.05;;
52266;SDS011;38223;50.940;4.034;2023-05-21T14:16:12;12.33;;;11.23;;
52266;SDS011;38223;50.940;4.034;2023-05-21T14:18:42;12.23;;;11.08;;
52266;SDS011;38223;50.940;4.034;2023-05-21T14:21:15;11.97;;;10.82;;
52266;SDS011;38223;50.940;4.034;2023-05-21T14:23:49;11.97;;;10.98;;
52266;SDS011;38223;50.940;4.034;2023-05-21T14:26:23;11.28;;;10.35;;
52266;SDS011;38223;50.940;4.034;2023-05-21T14:29:18;15.28;;;10.60;;
52266;SDS011;38223;50.940;4.034;2023-05-21T14:31:59;11.13;;;10.03;;
52266;SDS011;38223;50.940;4.034;2023-05-21T14:34:30;12.20;;;11.03;;
52266;SDS011;38223;50.940;4.034;2023-05-21T14:39:26;11.25;;;10.32;;
52266;SDS011;38223;50.940;4.034;2023-05-21T14:41:59;11.97;;;10.97;;
52266;SDS011;38223;50.940;4.034;2023-05-21T14:44:29;13.03;;;11.48;;
52266;SDS011;38223;50.940;4.034;2023-05-21T14:47:07;12.73;;;10.75;;
52266;SDS011;38223;50.940;4.034;2023-05-21T14:49:55;12.33;;;11.20;;
52266;SDS011;38223;50.940;4.034;2023-05-21T14:52:29;11.90;;;10.75;;
52266;SDS011;38223;50.940;4.034;2023-05-21T14:55:01;11.83;;;10.82;;
52266;SDS011;38223;50.940;4.034;2023-05-21T14:57:34;13.80;;;11.78;;
52266;SDS011;38223;50.940;4.034;2023-05-21T15:00:05;12.53;;;11.38;;
52266;SDS011;38223;50.940;4.034;2023-05-21T15:02:38;12.55;;;11.28;;
52266;SDS011;38223;50.940;4.034;2023-05-21T15:05:12;11.30;;;10.50;;
52266;SDS011;38223;50.940;4.034;2023-05-21T15:07:43;13.93;;;10.45;;
52266;SDS011;38223;50.940;4.034;2023-05-21T15:10:14;11.60;;;10.60;;
52266;SDS011;38223;50.940;4.034;2023-05-21T15:12:46;12.53;;;11.30;;
52266;SDS011;38223;50.940;4.034;2023-05-21T15:15:17;11.90;;;10.75;;
52266;SDS011;38223;50.940;4.034;2023-05-21T15:17:51;10.72;;;9.70;;
52266;SDS011;38223;50.940;4.034;2023-05-21T15:20:21;10.23;;;9.20;;
52266;SDS011;38223;50.940;4.034;2023-05-21T15:22:56;14.05;;;9.85;;
52266;SDS011;38223;50.940;4.034;2023-05-21T15:25:27;14.93;;;8.78;;
52266;SDS011;38223;50.940;4.034;2023-05-21T15:28:02;14.53;;;8.58;;
52266;SDS011;38223;50.940;4.034;2023-05-21T15:30:34;12.00;;;8.33;;
52266;SDS011;38223;50.940;4.034;2023-05-21T15:33:06;16.97;;;8.03;;
52266;SDS011;38223;50.940;4.034;2023-05-21T15:35:38;13.65;;;8.38;;
52266;SDS011;38223;50.940;4.034;2023-05-21T15:38:13;14.13;;;8.70;;
52266;SDS011;38223;50.940;4.034;2023-05-21T15:40:45;13.55;;;8.10;;
52266;SDS011;38223;50.940;4.034;2023-05-21T15:43:19;12.45;;;8.03;;
52266;SDS011;38223;50.940;4.034;2023-05-21T15:45:48;15.63;;;8.03;;
52266;SDS011;38223;50.940;4.034;2023-05-21T15:48:18;12.90;;;8.35;;
52266;SDS011;38223;50.940;4.034;2023-05-21T15:50:53;14.25;;;8.50;;
52266;SDS011;38223;50.940;4.034;2023-05-21T15:53:24;13.35;;;8.60;;
52266;SDS011;38223;50.940;4.034;2023-05-21T15:58:25;14.35;;;8.40;;
52266;SDS011;38223;50.940;4.034;2023-05-21T16:00:55;13.53;;;8.60;;
52266;SDS011;38223;50.940;4.034;2023-05-21T16:03:32;11.18;;;7.85;;
52266;SDS011;38223;50.940;4.034;2023-05-21T16:06:02;15.10;;;9.05;;
52266;SDS011;38223;50.940;4.034;2023-05-21T16:08:36;12.35;;;9.15;;
52266;SDS011;38223;50.940;4.034;2023-05-21T16:11:09;15.28;;;9.25;;
52266;SDS011;38223;50.940;4.034;2023-05-21T16:13:38;11.48;;;8.68;;
52266;SDS011;38223;50.940;4.034;2023-05-21T16:16:13;13.28;;;8.80;;
52266;SDS011;38223;50.940;4.034;2023-05-21T16:18:43;11.83;;;7.87;;
52266;SDS011;38223;50.940;4.034;2023-05-21T16:21:18;12.50;;;8.55;;